Time,TemperatureF,DewpointF,PressureIn,WindDirection,WindDirectionDegrees,WindSpeedMPH,WindSpeedGustMPH,Humidity,HourlyPrecipIn,Conditions,Clouds,dailyrainin,SoftwareType,DateUTC
2013-02-14 00:11:00,46.4,44.2,30.01,WSW,247,0.0,-999.0,92,-99.99,,,0.00,Acu-Link.com,2013-02-14 06:11:00,
2013-02-14 00:26:00,45.5,43.6,30.00,WSW,247,0.0,-999.0,93,-99.99,,,0.00,Acu-Link.com,2013-02-14 06:26:00,
2013-02-14 00:41:00,45.1,43.5,30.00,West,270,0.0,-999.0,94,-99.99,,,0.00,Acu-Link.com,2013-02-14 06:41:00,
2013-02-14 00:56:00,44.8,43.5,30.01,West,270,0.0,-999.0,95,-99.99,,,0.00,Acu-Link.com,2013-02-14 06:56:00,
2013-02-14 01:11:00,44.2,42.9,30.01,ESE,112,0.0,-999.0,95,-99.99,,,0.00,Acu-Link.com,2013-02-14 07:11:00,
2013-02-14 01:26:00,43.9,42.3,30.01,WNW,292,0.0,-999.0,94,-99.99,,,0.00,Acu-Link.com,2013-02-14 07:26:00,
2013-02-14 01:42:00,43.9,42.8,30.01,North,0,0.0,-999.0,96,-99.99,,,0.00,Acu-Link.com,2013-02-14 07:42:00,
2013-02-14 01:57:00,43.3,42.0,30.01,North,0,0.0,-999.0,95,-99.99,,,0.00,Acu-Link.com,2013-02-14 07:57:00,
2013-02-14 02:12:00,43.5,42.7,30.00,North,0,0.0,-999.0,97,-99.99,,,0.00,Acu-Link.com,2013-02-14 08:12:00,
2013-02-14 02:27:00,43.3,42.5,30.00,North,0,0.0,-999.0,97,-99.99,,,0.00,Acu-Link.com,2013-02-14 08:27:00,
2013-02-14 02:42:00,43.0,41.9,30.00,SSE,157,0.0,-999.0,96,-99.99,,,0.00,Acu-Link.com,2013-02-14 08:42:00,
2013-02-14 02:57:00,43.0,42.2,30.00,NW,315,0.0,-999.0,97,-99.99,,,0.00,Acu-Link.com,2013-02-14 08:57:00,
2013-02-14 03:15:00,43.5,43.0,30.00,NW,315,0.0,-999.0,98,-99.99,,,0.00,Acu-Link.com,2013-02-14 09:15:00,
2013-02-14 03:30:00,43.2,42.7,29.99,SE,135,0.0,-999.0,98,-99.99,,,0.00,Acu-Link.com,2013-02-14 09:30:00,
2013-02-14 03:46:00,42.1,41.3,29.99,NNE,22,0.0,-999.0,97,-99.99,,,0.00,Acu-Link.com,2013-02-14 09:46:00,
2013-02-14 04:01:00,41.4,40.6,29.99,NNE,22,0.0,-999.0,97,-99.99,,,0.00,Acu-Link.com,2013-02-14 10:01:00,
2013-02-14 04:16:00,41.4,40.6,29.99,ESE,112,0.0,-999.0,97,-99.99,,,0.00,Acu-Link.com,2013-02-14 10:16:00,
2013-02-14 04:31:00,41.2,40.7,29.99,ESE,112,0.0,-999.0,98,-99.99,,,0.00,Acu-Link.com,2013-02-14 10:31:00,
2013-02-14 04:46:00,40.8,40.3,29.99,East,90,0.0,-999.0,98,-99.99,,,0.00,Acu-Link.com,2013-02-14 10:46:00,
2013-02-14 05:01:00,40.6,40.1,30.00,ESE,112,0.0,-999.0,98,-99.99,,,0.00,Acu-Link.com,2013-02-14 11:01:00,
2013-02-14 05:16:00,40.6,40.1,29.99,ESE,112,0.0,-999.0,98,-99.99,,,0.00,Acu-Link.com,2013-02-14 11:16:00,
2013-02-14 05:32:00,40.6,40.3,29.99,ESE,112,0.0,-999.0,99,-99.99,,,0.00,Acu-Link.com,2013-02-14 11:32:00,
2013-02-14 05:47:00,40.3,40.0,30.00,ESE,112,0.0,-999.0,99,-99.99,,,0.00,Acu-Link.com,2013-02-14 11:47:00,
2013-02-14 06:02:00,40.1,39.8,30.00,ESE,112,0.0,-999.0,99,-99.99,,,0.00,Acu-Link.com,2013-02-14 12:02:00,
2013-02-14 06:17:00,40.6,40.3,30.00,ESE,112,0.0,-999.0,99,-99.99,,,0.00,Acu-Link.com,2013-02-14 12:17:00,
2013-02-14 06:32:00,40.8,40.5,30.00,ESE,112,0.0,-999.0,99,-99.99,,,0.00,Acu-Link.com,2013-02-14 12:32:00,
2013-02-14 06:47:00,40.5,40.2,30.01,ESE,112,0.0,-999.0,99,-99.99,,,0.00,Acu-Link.com,2013-02-14 12:47:00,
2013-02-14 07:03:00,40.8,40.5,30.02,East,90,0.0,-999.0,99,-99.99,,,0.00,Acu-Link.com,2013-02-14 13:03:00,
2013-02-14 07:18:00,41.7,41.4,30.02,ESE,112,0.0,-999.0,99,-99.99,,,0.00,Acu-Link.com,2013-02-14 13:18:00,
2013-02-14 07:33:00,41.7,41.4,30.02,ESE,112,0.0,-999.0,99,-99.99,,,0.00,Acu-Link.com,2013-02-14 13:33:00,
2013-02-14 07:48:00,42.4,42.1,30.03,East,90,0.0,-999.0,99,-99.99,,,0.00,Acu-Link.com,2013-02-14 13:48:00,
2013-02-14 08:03:00,46.9,46.6,30.03,NNE,22,1.7,-999.0,99,-99.99,,,0.00,Acu-Link.com,2013-02-14 14:03:00,
2013-02-14 08:18:00,55.2,51.7,30.03,ENE,67,2.7,-999.0,88,-99.99,,,0.00,Acu-Link.com,2013-02-14 14:18:00,
2013-02-14 08:34:00,60.8,50.6,30.03,NNE,22,2.7,-999.0,69,-99.99,,,0.00,Acu-Link.com,2013-02-14 14:34:00,
2013-02-14 08:49:00,62.8,50.0,30.04,NW,315,1.7,-999.0,63,-99.99,,,0.00,Acu-Link.com,2013-02-14 14:49:00,
2013-02-14 09:04:00,65.3,50.1,30.04,NNE,22,2.7,-999.0,58,-99.99,,,0.00,Acu-Link.com,2013-02-14 15:04:00,
2013-02-14 09:19:00,66.9,49.7,30.04,NE,45,2.7,-999.0,54,-99.99,,,0.00,Acu-Link.com,2013-02-14 15:19:00,
2013-02-14 09:34:00,67.3,49.6,30.03,ENE,67,4.2,-999.0,53,-99.99,,,0.00,Acu-Link.com,2013-02-14 15:34:00,
2013-02-14 09:49:00,62.4,48.3,30.03,NNE,22,1.7,-999.0,60,-99.99,,,0.00,Acu-Link.com,2013-02-14 15:49:00,
2013-02-14 10:04:00,64.6,49.5,30.04,NE,45,3.2,-999.0,58,-99.99,,,0.00,Acu-Link.com,2013-02-14 16:04:00,
2013-02-14 10:19:00,65.1,49.0,30.04,NE,45,2.2,-999.0,56,-99.99,,,0.00,Acu-Link.com,2013-02-14 16:19:00,
2013-02-14 10:34:00,66.2,45.9,30.04,ENE,67,4.7,-999.0,48,-99.99,,,0.00,Acu-Link.com,2013-02-14 16:34:00,
2013-02-14 10:49:00,66.7,46.9,30.04,NE,45,4.2,-999.0,49,-99.99,,,0.00,Acu-Link.com,2013-02-14 16:49:00,
2013-02-14 11:05:00,67.1,41.3,30.04,ESE,112,2.7,-999.0,39,-99.99,,,0.00,Acu-Link.com,2013-02-14 17:05:00,
2013-02-14 11:20:00,68.0,40.8,30.03,NNE,22,4.2,-999.0,37,-99.99,,,0.00,Acu-Link.com,2013-02-14 17:20:00,
2013-02-14 11:35:00,68.7,42.7,30.04,East,90,5.8,-999.0,39,-99.99,,,0.00,Acu-Link.com,2013-02-14 17:35:00,
2013-02-14 11:50:00,69.6,40.7,30.03,East,90,4.7,-999.0,35,-99.99,,,0.00,Acu-Link.com,2013-02-14 17:50:00,
2013-02-14 12:05:00,68.5,40.5,30.03,NNE,22,2.2,-999.0,36,-99.99,,,0.00,Acu-Link.com,2013-02-14 18:05:00,
2013-02-14 12:20:00,70.0,39.6,30.02,ESE,112,6.8,-999.0,33,-99.99,,,0.00,Acu-Link.com,2013-02-14 18:20:00,
2013-02-14 12:35:00,70.5,41.5,30.01,NE,45,4.7,-999.0,35,-99.99,,,0.00,Acu-Link.com,2013-02-14 18:35:00,
2013-02-14 12:50:00,71.2,38.2,30.00,ESE,112,6.3,-999.0,30,-99.99,,,0.00,Acu-Link.com,2013-02-14 18:50:00,
2013-02-14 13:05:00,71.6,35.8,29.99,ESE,112,4.7,-999.0,27,-99.99,,,0.00,Acu-Link.com,2013-02-14 19:05:00,
2013-02-14 13:21:00,71.8,36.0,29.98,East,90,6.3,-999.0,27,-99.99,,,0.00,Acu-Link.com,2013-02-14 19:21:00,
2013-02-14 13:36:00,70.0,35.4,29.97,East,90,2.2,-999.0,28,-99.99,,,0.00,Acu-Link.com,2013-02-14 19:36:00,
2013-02-14 13:51:00,71.6,34.9,29.97,ENE,67,5.8,-999.0,26,-99.99,,,0.00,Acu-Link.com,2013-02-14 19:51:00,
2013-02-14 14:06:00,71.4,35.7,29.96,NNE,22,4.7,-999.0,27,-99.99,,,0.00,Acu-Link.com,2013-02-14 20:06:00,
2013-02-14 14:21:00,71.4,35.7,29.95,NE,45,6.3,-999.0,27,-99.99,,,0.00,Acu-Link.com,2013-02-14 20:21:00,
2013-02-14 14:36:00,70.3,34.7,29.94,NNE,22,5.8,-999.0,27,-99.99,,,0.00,Acu-Link.com,2013-02-14 20:36:00,
2013-02-14 14:51:00,70.5,35.8,29.94,East,90,4.2,-999.0,28,-99.99,,,0.00,Acu-Link.com,2013-02-14 20:51:00,
2013-02-14 15:06:00,70.7,36.9,29.93,ESE,112,6.8,-999.0,29,-99.99,,,0.00,Acu-Link.com,2013-02-14 21:06:00,
2013-02-14 15:21:00,69.3,40.5,29.93,ENE,67,8.3,-999.0,35,-99.99,,,0.00,Acu-Link.com,2013-02-14 21:21:00,
2013-02-14 15:37:00,68.7,42.1,29.93,East,90,6.8,-999.0,38,-99.99,,,0.00,Acu-Link.com,2013-02-14 21:37:00,
2013-02-14 15:52:00,67.8,44.5,29.93,ESE,112,6.3,-999.0,43,-99.99,,,0.00,Acu-Link.com,2013-02-14 21:52:00,
2013-02-14 16:07:00,67.8,43.9,29.93,ESE,112,4.7,-999.0,42,-99.99,,,0.00,Acu-Link.com,2013-02-14 22:07:00,
2013-02-14 16:22:00,66.6,45.7,29.93,ESE,112,6.3,-999.0,47,-99.99,,,0.00,Acu-Link.com,2013-02-14 22:22:00,
2013-02-14 16:37:00,66.2,46.5,29.93,ENE,67,5.8,-999.0,49,-99.99,,,0.00,Acu-Link.com,2013-02-14 22:37:00,
2013-02-14 16:52:00,65.7,46.5,29.93,East,90,4.7,-999.0,50,-99.99,,,0.00,Acu-Link.com,2013-02-14 22:52:00,
2013-02-14 17:08:00,65.5,45.3,29.94,East,90,5.8,-999.0,48,-99.99,,,0.00,Acu-Link.com,2013-02-14 23:08:00,
2013-02-14 17:23:00,64.4,44.3,29.92,NE,45,4.2,-999.0,48,-99.99,,,0.00,Acu-Link.com,2013-02-14 23:23:00,
2013-02-14 17:38:00,63.1,44.2,29.93,ENE,67,5.8,-999.0,50,-99.99,,,0.00,Acu-Link.com,2013-02-14 23:38:00,
2013-02-14 17:54:00,62.4,44.5,29.92,ENE,67,3.7,-999.0,52,-99.99,,,0.00,Acu-Link.com,2013-02-14 23:54:00,
2013-02-14 18:09:00,61.3,44.5,29.93,East,90,6.3,-999.0,54,-99.99,,,0.00,Acu-Link.com,2013-02-15 00:09:00,
2013-02-14 18:24:00,60.6,43.9,29.93,ESE,112,4.2,-999.0,54,-99.99,,,0.00,Acu-Link.com,2013-02-15 00:24:00,
2013-02-14 18:39:00,59.9,43.7,29.93,ESE,112,3.2,-999.0,55,-99.99,,,0.00,Acu-Link.com,2013-02-15 00:39:00,
2013-02-14 18:59:00,59.5,44.3,29.94,NE,45,4.2,-999.0,57,-99.99,,,0.00,Acu-Link.com,2013-02-15 00:59:00,
2013-02-14 19:14:00,58.5,45.5,29.94,East,90,2.7,-999.0,62,-99.99,,,0.00,Acu-Link.com,2013-02-15 01:14:00,
2013-02-14 19:29:00,58.1,46.0,29.94,ESE,112,2.7,-999.0,64,-99.99,,,0.00,Acu-Link.com,2013-02-15 01:29:00,
2013-02-14 19:45:00,57.9,45.8,29.93,East,90,2.2,-999.0,64,-99.99,,,0.00,Acu-Link.com,2013-02-15 01:45:00,
2013-02-14 20:00:00,57.6,46.3,29.93,NE,45,3.7,-999.0,66,-99.99,,,0.00,Acu-Link.com,2013-02-15 02:00:00,
2013-02-14 20:15:00,57.6,46.3,29.94,ENE,67,3.2,-999.0,66,-99.99,,,0.00,Acu-Link.com,2013-02-15 02:15:00,
2013-02-14 20:33:00,57.6,46.3,29.94,ENE,67,2.2,-999.0,66,-99.99,,,0.00,Acu-Link.com,2013-02-15 02:33:00,
2013-02-14 20:48:00,57.0,46.5,29.94,NNE,22,3.2,-999.0,68,-99.99,,,0.00,Acu-Link.com,2013-02-15 02:48:00,
2013-02-14 21:03:00,57.2,46.7,29.94,ESE,112,2.7,-999.0,68,-99.99,,,0.00,Acu-Link.com,2013-02-15 03:03:00,
2013-02-14 21:18:00,57.2,47.1,29.95,East,90,2.2,-999.0,69,-99.99,,,0.00,Acu-Link.com,2013-02-15 03:18:00,
2013-02-14 21:33:00,57.2,47.5,29.95,East,90,3.7,-999.0,70,-99.99,,,0.00,Acu-Link.com,2013-02-15 03:33:00,
2013-02-14 21:49:00,56.8,47.5,29.96,East,90,2.2,-999.0,71,-99.99,,,0.00,Acu-Link.com,2013-02-15 03:49:00,
2013-02-14 22:04:00,56.8,47.9,29.95,NE,45,3.7,-999.0,72,-99.99,,,0.00,Acu-Link.com,2013-02-15 04:04:00,
2013-02-14 22:19:00,57.0,48.4,29.97,East,90,5.3,-999.0,73,-99.99,,,0.00,Acu-Link.com,2013-02-15 04:19:00,
2013-02-14 22:34:00,56.8,48.6,29.98,East,90,2.2,-999.0,74,-99.99,,,0.00,Acu-Link.com,2013-02-15 04:34:00,
2013-02-14 22:49:00,55.9,48.8,29.99,ESE,112,1.7,-999.0,77,-99.99,,,0.00,Acu-Link.com,2013-02-15 04:49:00,
2013-02-14 23:04:00,54.7,48.7,29.97,ESE,112,1.1,-999.0,80,-99.99,,,0.00,Acu-Link.com,2013-02-15 05:04:00,
2013-02-14 23:19:00,54.7,49.0,29.96,East,90,1.7,-999.0,81,-99.99,,,0.00,Acu-Link.com,2013-02-15 05:19:00,
2013-02-14 23:34:00,54.7,49.3,29.96,East,90,2.2,-999.0,82,-99.99,,,0.00,Acu-Link.com,2013-02-15 05:34:00,
2013-02-14 23:49:00,54.5,49.1,29.96,NE,45,1.7,-999.0,82,-99.99,,,0.00,Acu-Link.com,2013-02-15 05:49:00,